createdAt,value
2016-09-25T00:00:04.117Z,1002.8
2016-09-25T00:00:24.702Z,1002.8
2016-09-25T00:00:45.285Z,1002.8
2016-09-25T00:01:05.909Z,1002.8
2016-09-25T00:01:26.489Z,1002.8
2016-09-25T00:01:47.063Z,1002.8
2016-09-25T00:02:07.637Z,1002.8
2016-09-25T00:02:28.233Z,1002.8
2016-09-25T00:02:48.847Z,1002.8
2016-09-25T00:03:09.437Z,1002.9
2016-09-25T00:03:30.011Z,1002.9
2016-09-25T00:03:50.601Z,1002.8
2016-09-25T00:04:11.211Z,1002.9
2016-09-25T00:04:31.781Z,1002.8
2016-09-25T00:04:52.384Z,1002.8
2016-09-25T00:05:12.963Z,1002.8
2016-09-25T00:05:33.550Z,1002.8
2016-09-25T00:05:54.145Z,1002.8
2016-09-25T00:06:14.725Z,1002.8
2016-09-25T00:06:35.347Z,1002.9
2016-09-25T00:06:55.927Z,1002.9
2016-09-25T00:07:16.516Z,1002.8
2016-09-25T00:07:37.108Z,1002.9
2016-09-25T00:07:57.692Z,1002.9
2016-09-25T00:08:18.275Z,1002.9
2016-09-25T00:08:38.862Z,1002.9
2016-09-25T00:08:59.448Z,1002.8
2016-09-25T00:09:20.036Z,1002.9
2016-09-25T00:09:40.618Z,1002.9
2016-09-25T00:10:01.212Z,1002.9
2016-09-25T00:10:21.779Z,1002.8
2016-09-25T00:10:42.365Z,1002.9
2016-09-25T00:11:02.963Z,1002.9
2016-09-25T00:11:23.544Z,1002.9
2016-09-25T00:11:44.157Z,1002.9
2016-09-25T00:12:04.737Z,1002.9
2016-09-25T00:12:25.319Z,1002.9
2016-09-25T00:12:45.904Z,1002.9
2016-09-25T00:13:06.519Z,1002.9
2016-09-25T00:13:27.100Z,1002.9
2016-09-25T00:13:47.690Z,1002.9
2016-09-25T00:14:08.258Z,1002.9
2016-09-25T00:14:28.870Z,1002.9
2016-09-25T00:14:49.462Z,1002.9
2016-09-25T00:15:10.040Z,1002.9
2016-09-25T00:15:30.626Z,1002.9
2016-09-25T00:15:51.206Z,1002.9
2016-09-25T00:16:11.795Z,1002.9
2016-09-25T00:16:32.396Z,1002.9
2016-09-25T00:16:52.999Z,1002.9
2016-09-25T00:17:13.591Z,1002.9
2016-09-25T00:17:34.155Z,1002.9
2016-09-25T00:17:54.745Z,1002.9
2016-09-25T00:18:15.343Z,1002.9
2016-09-25T00:18:35.922Z,1002.9
2016-09-25T00:18:56.516Z,1002.9
2016-09-25T00:19:17.110Z,1002.9
2016-09-25T00:19:37.714Z,1002.8
2016-09-25T00:19:58.301Z,1002.9
2016-09-25T00:20:18.871Z,1002.8
2016-09-25T00:20:39.454Z,1002.8
2016-09-25T00:21:00.043Z,1002.9
2016-09-25T00:21:20.652Z,1002.8
2016-09-25T00:21:41.254Z,1002.8
2016-09-25T00:22:01.829Z,1002.8
2016-09-25T00:22:22.402Z,1002.9
2016-09-25T00:22:42.998Z,1002.9
2016-09-25T00:23:03.589Z,1002.8
2016-09-25T00:23:24.183Z,1002.8
2016-09-25T00:23:44.776Z,1002.9
2016-09-25T00:24:05.374Z,1002.8
2016-09-25T00:24:25.954Z,1002.9
2016-09-25T00:24:46.558Z,1002.8
2016-09-25T00:25:07.161Z,1002.8
2016-09-25T00:25:27.747Z,1002.8
2016-09-25T00:25:48.344Z,1002.8
2016-09-25T00:26:08.920Z,1002.8
2016-09-25T00:26:29.499Z,1002.8
2016-09-25T00:26:50.086Z,1002.8
2016-09-25T00:27:10.668Z,1002.8
2016-09-25T00:27:31.239Z,1002.8
2016-09-25T00:27:51.845Z,1002.8
2016-09-25T00:28:12.433Z,1002.9
2016-09-25T00:28:33.032Z,1002.8
2016-09-25T00:28:53.605Z,1002.9
2016-09-25T00:29:14.195Z,1002.8
2016-09-25T00:29:34.781Z,1002.8
2016-09-25T00:29:55.377Z,1002.8
2016-09-25T00:30:15.971Z,1002.8
2016-09-25T00:30:36.557Z,1002.8
2016-09-25T00:30:57.155Z,1002.9
2016-09-25T00:31:17.736Z,1002.8
2016-09-25T00:31:38.304Z,1002.9
2016-09-25T00:31:58.886Z,1002.9
2016-09-25T00:32:19.465Z,1002.8
2016-09-25T00:32:40.072Z,1002.8
2016-09-25T00:33:00.670Z,1002.9
2016-09-25T00:33:21.263Z,1002.9
2016-09-25T00:33:41.835Z,1002.9
2016-09-25T00:34:02.412Z,1002.8
2016-09-25T00:34:23.017Z,1002.9
2016-09-25T00:34:43.605Z,1002.8
2016-09-25T00:35:04.168Z,1002.9
2016-09-25T00:35:24.740Z,1002.9
2016-09-25T00:35:45.322Z,1002.9
2016-09-25T00:36:05.892Z,1002.9
2016-09-25T00:36:26.485Z,1002.9
2016-09-25T00:36:47.071Z,1002.9
2016-09-25T00:37:07.657Z,1002.8
2016-09-25T00:37:28.251Z,1002.9
2016-09-25T00:37:48.815Z,1002.9
2016-09-25T00:38:09.444Z,1002.9
2016-09-25T00:38:30.030Z,1002.9
2016-09-25T00:38:50.610Z,1002.8
2016-09-25T00:39:11.192Z,1002.9
2016-09-25T00:39:31.770Z,1002.9
2016-09-25T00:39:52.391Z,1002.9
2016-09-25T00:40:12.961Z,1002.9
2016-09-25T00:40:33.550Z,1002.9
2016-09-25T00:40:54.144Z,1002.9
2016-09-25T00:41:14.726Z,1002.8
2016-09-25T00:41:35.305Z,1002.9
2016-09-25T00:41:55.890Z,1002.9
2016-09-25T00:42:16.465Z,1002.8
2016-09-25T00:42:37.061Z,1002.8
2016-09-25T00:42:57.652Z,1002.9
2016-09-25T00:43:18.244Z,1002.9
2016-09-25T00:43:38.840Z,1002.9
2016-09-25T00:43:59.407Z,1002.9
2016-09-25T00:44:19.976Z,1002.8
2016-09-25T00:44:40.569Z,1002.9
2016-09-25T00:45:01.152Z,1002.9
2016-09-25T00:45:21.740Z,1002.8
2016-09-25T00:45:42.313Z,1002.8
2016-09-25T00:46:02.901Z,1002.9
2016-09-25T00:46:23.491Z,1002.8
2016-09-25T00:46:44.067Z,1002.8
2016-09-25T00:47:04.650Z,1002.8
2016-09-25T00:47:25.234Z,1002.9
2016-09-25T00:47:45.817Z,1002.9
2016-09-25T00:48:06.424Z,1002.8
2016-09-25T00:48:27.013Z,1002.9
2016-09-25T00:48:47.572Z,1002.9
2016-09-25T00:49:08.132Z,1002.9
2016-09-25T00:49:28.705Z,1002.9
2016-09-25T00:49:49.310Z,1002.9
2016-09-25T00:50:09.916Z,1002.9
2016-09-25T00:50:30.497Z,1002.9
2016-09-25T00:50:51.069Z,1002.9
2016-09-25T00:51:11.650Z,1002.9
2016-09-25T00:51:32.228Z,1002.9
2016-09-25T00:51:52.794Z,1002.9
2016-09-25T00:52:13.370Z,1002.9
2016-09-25T00:52:33.950Z,1002.9
2016-09-25T00:52:54.535Z,1002.9
2016-09-25T00:53:15.113Z,1002.9
2016-09-25T00:53:35.694Z,1002.9
2016-09-25T00:53:56.266Z,1002.9
2016-09-25T00:54:16.851Z,1002.9
2016-09-25T00:54:37.419Z,1002.9
2016-09-25T00:54:58.003Z,1002.9
2016-09-25T00:55:18.590Z,1002.9
2016-09-25T00:55:39.179Z,1002.8
2016-09-25T00:55:59.754Z,1002.9
2016-09-25T00:56:20.364Z,1002.8
2016-09-25T00:56:40.941Z,1002.9
2016-09-25T00:57:01.503Z,1002.9
2016-09-25T00:57:22.081Z,1002.8
2016-09-25T00:57:42.698Z,1002.9
2016-09-25T00:58:03.292Z,1002.8
2016-09-25T00:58:23.859Z,1002.8
2016-09-25T00:58:44.456Z,1002.8
2016-09-25T00:59:05.024Z,1002.8
2016-09-25T00:59:25.612Z,1002.9
2016-09-25T00:59:46.199Z,1002.9
2016-09-25T01:00:06.814Z,1002.8
2016-09-25T01:00:27.394Z,1002.9
2016-09-25T01:00:47.986Z,1002.8
2016-09-25T01:01:08.578Z,1002.8
2016-09-25T01:01:29.169Z,1002.8
2016-09-25T01:01:49.772Z,1002.9
2016-09-25T01:02:10.361Z,1002.8
2016-09-25T01:02:30.954Z,1002.8
2016-09-25T01:02:51.543Z,1002.9
2016-09-25T01:03:12.134Z,1002.8
2016-09-25T01:03:32.733Z,1002.8
2016-09-25T01:03:53.319Z,1002.8
2016-09-25T01:04:13.893Z,1002.8
2016-09-25T01:04:34.477Z,1002.8
2016-09-25T01:04:55.059Z,1002.9
2016-09-25T01:05:15.631Z,1002.8
2016-09-25T01:05:36.261Z,1002.8
2016-09-25T01:05:56.843Z,1002.9
2016-09-25T01:06:17.425Z,1002.8
2016-09-25T01:06:38.016Z,1002.8
2016-09-25T01:06:58.610Z,1002.8
2016-09-25T01:07:19.184Z,1002.9
2016-09-25T01:07:39.790Z,1002.8
2016-09-25T01:08:00.390Z,1002.8
2016-09-25T01:08:20.989Z,1002.8
2016-09-25T01:08:41.582Z,1002.8
2016-09-25T01:09:02.157Z,1002.8
2016-09-25T01:09:22.770Z,1002.8
2016-09-25T01:09:43.335Z,1002.8
2016-09-25T01:10:03.917Z,1002.8
2016-09-25T01:10:24.508Z,1002.8
2016-09-25T01:10:45.086Z,1002.8
2016-09-25T01:11:05.685Z,1002.8
2016-09-25T01:11:26.277Z,1002.8
2016-09-25T01:11:46.875Z,1002.8
2016-09-25T01:12:07.458Z,1002.8
2016-09-25T01:12:28.034Z,1002.8
2016-09-25T01:12:48.631Z,1002.8
2016-09-25T01:13:09.207Z,1002.8
2016-09-25T01:13:29.797Z,1002.7
2016-09-25T01:13:50.381Z,1002.7
2016-09-25T01:14:10.963Z,1002.7
2016-09-25T01:14:31.563Z,1002.8
2016-09-25T01:14:52.161Z,1002.7
2016-09-25T01:15:12.755Z,1002.8
2016-09-25T01:15:33.343Z,1002.7
2016-09-25T01:15:53.904Z,1002.8
2016-09-25T01:16:14.495Z,1002.8
2016-09-25T01:16:35.110Z,1002.8
2016-09-25T01:16:55.704Z,1002.8
2016-09-25T01:17:16.284Z,1002.8
2016-09-25T01:17:36.845Z,1002.8
2016-09-25T01:17:57.420Z,1002.8
2016-09-25T01:18:18.000Z,1002.8
2016-09-25T01:18:38.583Z,1002.8
2016-09-25T01:18:59.153Z,1002.8
2016-09-25T01:19:19.731Z,1002.8
2016-09-25T01:19:40.330Z,1002.8
2016-09-25T01:20:00.922Z,1002.8
2016-09-25T01:20:21.511Z,1002.8
2016-09-25T01:20:42.090Z,1002.8
2016-09-25T01:21:02.681Z,1002.8
2016-09-25T01:21:23.260Z,1002.8
2016-09-25T01:21:43.870Z,1002.8
2016-09-25T01:22:04.450Z,1002.8
2016-09-25T01:22:25.054Z,1002.8
2016-09-25T01:22:45.613Z,1002.8
2016-09-25T01:23:06.195Z,1002.8
2016-09-25T01:23:26.781Z,1002.8
2016-09-25T01:23:47.362Z,1002.8
2016-09-25T01:24:07.946Z,1002.8
2016-09-25T01:24:28.533Z,1002.8
2016-09-25T01:24:49.113Z,1002.8
2016-09-25T01:25:09.689Z,1002.8
2016-09-25T01:25:30.286Z,1002.8
2016-09-25T01:25:50.879Z,1002.7
2016-09-25T01:26:11.487Z,1002.8
2016-09-25T01:26:32.059Z,1002.8
2016-09-25T01:26:52.658Z,1002.7
2016-09-25T01:27:13.237Z,1002.7
2016-09-25T01:27:33.825Z,1002.7
2016-09-25T01:27:54.403Z,1002.7
2016-09-25T01:28:14.986Z,1002.7
2016-09-25T01:28:35.571Z,1002.7
2016-09-25T01:28:56.169Z,1002.7
2016-09-25T01:29:16.754Z,1002.7
2016-09-25T01:29:37.334Z,1002.7
2016-09-25T01:29:57.900Z,1002.7
2016-09-25T01:30:18.486Z,1002.8
2016-09-25T01:30:39.057Z,1002.7
2016-09-25T01:30:59.646Z,1002.8
2016-09-25T01:31:20.222Z,1002.7
2016-09-25T01:31:40.801Z,1002.7
2016-09-25T01:32:01.376Z,1002.8
2016-09-25T01:32:21.950Z,1002.7
2016-09-25T01:32:42.538Z,1002.7
2016-09-25T01:33:03.139Z,1002.8
2016-09-25T01:33:23.718Z,1002.7
2016-09-25T01:33:44.295Z,1002.8
2016-09-25T01:34:04.871Z,1002.7
2016-09-25T01:34:25.476Z,1002.7
2016-09-25T01:34:46.070Z,1002.7
2016-09-25T01:35:06.663Z,1002.7
2016-09-25T01:35:27.273Z,1002.7
2016-09-25T01:35:47.861Z,1002.7
2016-09-25T01:36:08.438Z,1002.7
2016-09-25T01:36:29.025Z,1002.7
2016-09-25T01:36:49.635Z,1002.7
2016-09-25T01:37:10.242Z,1002.7
2016-09-25T01:37:30.817Z,1002.8
2016-09-25T01:37:51.412Z,1002.7
2016-09-25T01:38:12.011Z,1002.7
2016-09-25T01:38:32.628Z,1002.7
2016-09-25T01:38:53.239Z,1002.7
2016-09-25T01:39:13.822Z,1002.7
2016-09-25T01:39:34.400Z,1002.7
2016-09-25T01:39:54.996Z,1002.8
2016-09-25T01:40:15.595Z,1002.8
2016-09-25T01:40:36.188Z,1002.7
2016-09-25T01:40:56.785Z,1002.8
2016-09-25T01:41:17.378Z,1002.8
2016-09-25T01:41:37.954Z,1002.7
2016-09-25T01:41:58.560Z,1002.8
2016-09-25T01:42:19.154Z,1002.7
2016-09-25T01:42:39.770Z,1002.7
2016-09-25T01:43:00.355Z,1002.8
2016-09-25T01:43:20.959Z,1002.8
2016-09-25T01:43:41.556Z,1002.7
2016-09-25T01:44:02.150Z,1002.7
2016-09-25T01:44:22.754Z,1002.7
2016-09-25T01:44:43.366Z,1002.7
2016-09-25T01:45:03.985Z,1002.7
2016-09-25T01:45:24.632Z,1002.7
2016-09-25T01:45:45.317Z,1002.7
2016-09-25T01:46:06.182Z,1002.7
2016-09-25T01:46:26.774Z,1002.7
2016-09-25T01:46:47.409Z,1002.7
2016-09-25T01:47:07.989Z,1002.7
2016-09-25T01:47:28.582Z,1002.7
2016-09-25T01:47:49.270Z,1002.7
2016-09-25T01:48:09.878Z,1002.7
2016-09-25T01:48:31.549Z,1002.7
2016-09-25T01:48:52.157Z,1002.7
2016-09-25T01:49:12.750Z,1002.7
2016-09-25T01:49:33.344Z,1002.7
2016-09-25T01:49:54.633Z,1002.7
2016-09-25T01:50:15.601Z,1002.7
2016-09-25T01:50:36.503Z,1002.7
2016-09-25T01:50:57.163Z,1002.7
2016-09-25T01:51:17.754Z,1002.7
2016-09-25T01:51:38.393Z,1002.7
2016-09-25T01:51:59.030Z,1002.6
2016-09-25T01:52:19.628Z,1002.7
2016-09-25T01:52:40.221Z,1002.7
2016-09-25T01:53:00.807Z,1002.7
2016-09-25T01:53:21.441Z,1002.7
2016-09-25T01:53:42.038Z,1002.6
2016-09-25T01:54:02.661Z,1002.7
2016-09-25T01:54:23.261Z,1002.6
2016-09-25T01:54:43.869Z,1002.7
2016-09-25T01:55:04.468Z,1002.6
2016-09-25T01:55:25.065Z,1002.6
2016-09-25T01:55:45.665Z,1002.6
2016-09-25T01:56:06.249Z,1002.6
2016-09-25T01:56:26.846Z,1002.6
2016-09-25T01:56:47.452Z,1002.6
2016-09-25T01:57:08.060Z,1002.6
2016-09-25T01:57:28.756Z,1002.6
2016-09-25T01:57:49.351Z,1002.6
2016-09-25T01:58:09.941Z,1002.6
2016-09-25T01:58:30.560Z,1002.6
2016-09-25T01:58:51.168Z,1002.6
2016-09-25T01:59:11.781Z,1002.6
2016-09-25T01:59:32.362Z,1002.6
2016-09-25T01:59:52.955Z,1002.6
2016-09-25T02:00:13.561Z,1002.6
2016-09-25T02:00:34.157Z,1002.6
2016-09-25T02:00:54.740Z,1002.6
2016-09-25T02:01:15.334Z,1002.6
2016-09-25T02:01:35.930Z,1002.6
2016-09-25T02:01:56.528Z,1002.6
2016-09-25T02:02:17.134Z,1002.6
2016-09-25T02:02:37.728Z,1002.6
2016-09-25T02:02:58.324Z,1002.6
2016-09-25T02:03:18.933Z,1002.6
2016-09-25T02:03:39.532Z,1002.6
2016-09-25T02:04:00.132Z,1002.6
2016-09-25T02:04:20.719Z,1002.6
2016-09-25T02:04:41.327Z,1002.6
2016-09-25T02:05:01.928Z,1002.5
2016-09-25T02:05:22.522Z,1002.5
2016-09-25T02:05:43.109Z,1002.5
2016-09-25T02:06:03.726Z,1002.5
2016-09-25T02:06:24.301Z,1002.5
2016-09-25T02:06:44.906Z,1002.5
2016-09-25T02:07:05.503Z,1002.5
2016-09-25T02:07:26.090Z,1002.5
2016-09-25T02:07:46.681Z,1002.5
2016-09-25T02:08:07.265Z,1002.5
2016-09-25T02:08:27.855Z,1002.5
2016-09-25T02:08:48.467Z,1002.5
2016-09-25T02:09:09.070Z,1002.6
2016-09-25T02:09:29.660Z,1002.5
2016-09-25T02:09:50.262Z,1002.5
2016-09-25T02:10:10.858Z,1002.5
2016-09-25T02:10:31.454Z,1002.5
2016-09-25T02:10:52.057Z,1002.5
2016-09-25T02:11:12.635Z,1002.5
2016-09-25T02:11:33.219Z,1002.5
2016-09-25T02:11:53.811Z,1002.5
2016-09-25T02:12:14.386Z,1002.5
2016-09-25T02:12:35.016Z,1002.4
2016-09-25T02:12:55.615Z,1002.5
2016-09-25T02:13:16.212Z,1002.4
2016-09-25T02:13:36.823Z,1002.5
2016-09-25T02:13:57.416Z,1002.5
2016-09-25T02:14:18.016Z,1002.5
2016-09-25T02:14:38.607Z,1002.5
2016-09-25T02:14:59.198Z,1002.5
2016-09-25T02:15:19.791Z,1002.5
2016-09-25T02:15:40.407Z,1002.5
2016-09-25T02:16:01.009Z,1002.5
2016-09-25T02:16:21.616Z,1002.5
2016-09-25T02:16:42.204Z,1002.5
2016-09-25T02:17:02.820Z,1002.5
2016-09-25T02:17:23.423Z,1002.4
2016-09-25T02:17:44.014Z,1002.4
2016-09-25T02:18:04.612Z,1002.4
2016-09-25T02:18:25.215Z,1002.4
2016-09-25T02:18:45.817Z,1002.4
2016-09-25T02:19:06.410Z,1002.4
2016-09-25T02:19:27.002Z,1002.4
2016-09-25T02:19:47.590Z,1002.4
2016-09-25T02:20:08.181Z,1002.4
2016-09-25T02:20:28.759Z,1002.4
2016-09-25T02:20:49.371Z,1002.4
2016-09-25T02:21:09.993Z,1002.4
2016-09-25T02:21:30.585Z,1002.4
2016-09-25T02:21:51.160Z,1002.3
2016-09-25T02:22:11.741Z,1002.3
2016-09-25T02:22:32.344Z,1002.3
2016-09-25T02:22:52.951Z,1002.4
2016-09-25T02:23:13.544Z,1002.3
2016-09-25T02:23:34.182Z,1002.3
2016-09-25T02:23:54.774Z,1002.4
2016-09-25T02:24:15.382Z,1002.4
2016-09-25T02:24:35.983Z,1002.3
2016-09-25T02:24:56.564Z,1002.4
2016-09-25T02:25:17.170Z,1002.3
2016-09-25T02:25:37.768Z,1002.3
2016-09-25T02:25:58.361Z,1002.3
2016-09-25T02:26:18.955Z,1002.3
2016-09-25T02:26:39.527Z,1002.3
2016-09-25T02:27:00.124Z,1002.3
2016-09-25T02:27:20.752Z,1002.3
2016-09-25T02:27:41.357Z,1002.3
2016-09-25T02:28:01.939Z,1002.3
2016-09-25T02:28:22.534Z,1002.3
2016-09-25T02:28:43.127Z,1002.3
2016-09-25T02:29:03.724Z,1002.3
2016-09-25T02:29:24.333Z,1002.3
2016-09-25T02:29:44.957Z,1002.3
2016-09-25T02:30:05.567Z,1002.3
2016-09-25T02:30:26.165Z,1002.3
2016-09-25T02:30:48.393Z,1002.3
2016-09-25T02:31:09.051Z,1002.3
2016-09-25T02:31:29.658Z,1002.3
2016-09-25T02:31:50.248Z,1002.3
2016-09-25T02:32:10.845Z,1002.3
2016-09-25T02:32:31.421Z,1002.3
2016-09-25T02:32:52.024Z,1002.3
2016-09-25T02:33:12.610Z,1002.3
2016-09-25T02:33:33.197Z,1002.3
2016-09-25T02:33:53.792Z,1002.3
2016-09-25T02:34:14.406Z,1002.3
2016-09-25T02:34:35.000Z,1002.3
2016-09-25T02:34:55.585Z,1002.3
2016-09-25T02:35:16.201Z,1002.3
2016-09-25T02:35:36.805Z,1002.3
2016-09-25T02:35:57.407Z,1002.3
2016-09-25T02:36:18.000Z,1002.3
2016-09-25T02:36:38.588Z,1002.3
2016-09-25T02:36:59.180Z,1002.3
2016-09-25T02:37:19.791Z,1002.3
2016-09-25T02:37:40.401Z,1002.3
2016-09-25T02:38:01.006Z,1002.3
2016-09-25T02:38:21.596Z,1002.3
2016-09-25T02:38:42.187Z,1002.3
2016-09-25T02:39:02.780Z,1002.3
2016-09-25T02:39:23.355Z,1002.2
2016-09-25T02:39:43.919Z,1002.3
2016-09-25T02:40:04.504Z,1002.2
2016-09-25T02:40:25.097Z,1002.3
2016-09-25T02:40:45.699Z,1002.3
2016-09-25T02:41:06.281Z,1002.3
2016-09-25T02:41:26.882Z,1002.2
2016-09-25T02:41:47.470Z,1002.3
2016-09-25T02:42:08.088Z,1002.3
2016-09-25T02:42:28.706Z,1002.3
2016-09-25T02:42:49.283Z,1002.2
2016-09-25T02:43:09.868Z,1002.3
2016-09-25T02:43:30.465Z,1002.3
2016-09-25T02:43:51.059Z,1002.2
2016-09-25T02:44:11.654Z,1002.3
2016-09-25T02:44:32.240Z,1002.3
2016-09-25T02:44:52.810Z,1002.3
2016-09-25T02:45:13.406Z,1002.2
2016-09-25T02:45:34.021Z,1002.3
2016-09-25T02:45:54.606Z,1002.2
2016-09-25T02:46:15.208Z,1002.3
2016-09-25T02:46:35.786Z,1002.2
2016-09-25T02:46:56.367Z,1002.3
2016-09-25T02:47:16.969Z,1002.2
2016-09-25T02:47:37.590Z,1002.3
2016-09-25T02:47:58.198Z,1002.3
2016-09-25T02:48:18.790Z,1002.3
2016-09-25T02:48:39.371Z,1002.2
2016-09-25T02:48:59.968Z,1002.3
2016-09-25T02:49:20.599Z,1002.3
2016-09-25T02:49:41.212Z,1002.2
2016-09-25T02:50:01.822Z,1002.3
2016-09-25T02:50:22.419Z,1002.3
2016-09-25T02:50:42.988Z,1002.2
2016-09-25T02:51:03.590Z,1002.3
2016-09-25T02:51:24.205Z,1002.2
2016-09-25T02:51:44.799Z,1002.2
2016-09-25T02:52:05.398Z,1002.2
2016-09-25T02:52:25.994Z,1002.2
2016-09-25T02:52:46.587Z,1002.3
2016-09-25T02:53:07.187Z,1002.3
2016-09-25T02:53:27.782Z,1002.2
2016-09-25T02:53:48.362Z,1002.2
2016-09-25T02:54:08.929Z,1002.2
2016-09-25T02:54:29.550Z,1002.2
2016-09-25T02:54:50.145Z,1002.2
2016-09-25T02:55:10.745Z,1002.2
2016-09-25T02:55:31.345Z,1002.2
2016-09-25T02:55:51.927Z,1002.2
2016-09-25T02:56:12.539Z,1002.2
2016-09-25T02:56:33.124Z,1002.2
2016-09-25T02:56:53.727Z,1002.2
2016-09-25T02:57:14.347Z,1002.2
2016-09-25T02:57:34.942Z,1002.2
2016-09-25T02:57:55.548Z,1002.2
2016-09-25T02:58:16.160Z,1002.2
2016-09-25T02:58:36.762Z,1002.2
2016-09-25T02:58:57.362Z,1002.2
2016-09-25T02:59:17.945Z,1002.2
2016-09-25T02:59:38.547Z,1002.2
2016-09-25T02:59:59.129Z,1002.2
2016-09-25T03:00:19.740Z,1002.2
2016-09-25T03:00:40.360Z,1002.2
2016-09-25T03:01:00.979Z,1002.2
2016-09-25T03:01:21.580Z,1002.2
2016-09-25T03:01:42.159Z,1002.1
2016-09-25T03:02:02.772Z,1002.2
2016-09-25T03:02:23.370Z,1002.1
2016-09-25T03:02:43.979Z,1002.1
2016-09-25T03:03:04.593Z,1002.1
2016-09-25T03:03:25.198Z,1002.1
2016-09-25T03:03:45.804Z,1002.1
2016-09-25T03:04:06.399Z,1002.1
2016-09-25T03:04:27.001Z,1002.1
2016-09-25T03:04:47.600Z,1002.1
2016-09-25T03:05:08.180Z,1002.1
2016-09-25T03:05:28.759Z,1002.1
2016-09-25T03:05:49.364Z,1002.1
2016-09-25T03:06:10.000Z,1002.1
2016-09-25T03:06:30.603Z,1002.1
2016-09-25T03:06:51.194Z,1002.1
2016-09-25T03:07:11.802Z,1002.1
2016-09-25T03:07:32.388Z,1002.1
2016-09-25T03:07:53.015Z,1002.1
2016-09-25T03:08:13.626Z,1002.1
2016-09-25T03:08:34.206Z,1002.1
2016-09-25T03:08:54.821Z,1002.1
2016-09-25T03:09:15.420Z,1002.1
2016-09-25T03:09:36.041Z,1002.1
2016-09-25T03:09:56.632Z,1002.1
2016-09-25T03:10:17.219Z,1002.1
2016-09-25T03:10:37.835Z,1002.1
2016-09-25T03:10:58.436Z,1002.1
2016-09-25T03:11:19.055Z,1002.1
2016-09-25T03:11:39.655Z,1002.1
2016-09-25T03:12:00.243Z,1002.1
2016-09-25T03:12:20.834Z,1002.1
2016-09-25T03:12:41.427Z,1002.1
2016-09-25T03:13:02.001Z,1002.1
2016-09-25T03:13:22.605Z,1002.1
2016-09-25T03:13:43.207Z,1002.1
2016-09-25T03:14:03.814Z,1002.1
2016-09-25T03:14:24.419Z,1002
2016-09-25T03:14:45.034Z,1002
2016-09-25T03:15:05.683Z,1002
2016-09-25T03:15:26.277Z,1002
2016-09-25T03:15:46.866Z,1002
2016-09-25T03:16:07.461Z,1002
2016-09-25T03:16:28.054Z,1002.1
2016-09-25T03:16:48.651Z,1002.1
2016-09-25T03:17:09.278Z,1002.1
2016-09-25T03:17:29.887Z,1002
2016-09-25T03:17:50.461Z,1002.1
2016-09-25T03:18:11.085Z,1002
2016-09-25T03:18:31.662Z,1002
2016-09-25T03:18:52.268Z,1002
2016-09-25T03:19:12.877Z,1002
2016-09-25T03:19:33.503Z,1002
2016-09-25T03:19:54.123Z,1002
2016-09-25T03:20:14.723Z,1002
2016-09-25T03:20:35.326Z,1002
2016-09-25T03:20:55.906Z,1002
2016-09-25T03:21:16.521Z,1002.1
2016-09-25T03:21:37.108Z,1002
2016-09-25T03:21:57.697Z,1002
2016-09-25T03:22:18.293Z,1002
2016-09-25T03:22:38.883Z,1002
2016-09-25T03:22:59.485Z,1002.1
2016-09-25T03:23:20.084Z,1002
2016-09-25T03:23:40.647Z,1002
2016-09-25T03:24:01.246Z,1002
2016-09-25T03:24:21.849Z,1002
2016-09-25T03:24:42.478Z,1002
2016-09-25T03:25:03.105Z,1002
2016-09-25T03:25:23.687Z,1002
2016-09-25T03:25:44.276Z,1002
2016-09-25T03:26:04.879Z,1002
2016-09-25T03:26:25.491Z,1002
2016-09-25T03:26:46.085Z,1002
2016-09-25T03:27:06.662Z,1002
2016-09-25T03:27:27.251Z,1002
2016-09-25T03:27:47.845Z,1002
2016-09-25T03:28:08.453Z,1002
2016-09-25T03:28:29.055Z,1002
2016-09-25T03:28:49.684Z,1002
2016-09-25T03:29:10.292Z,1002
2016-09-25T03:29:30.925Z,1002
2016-09-25T03:29:51.526Z,1002
2016-09-25T03:30:12.122Z,1002
2016-09-25T03:30:32.711Z,1002
2016-09-25T03:30:53.300Z,1002
2016-09-25T03:31:13.906Z,1002
2016-09-25T03:31:34.504Z,1002
2016-09-25T03:31:55.078Z,1002
2016-09-25T03:32:15.660Z,1002
2016-09-25T03:32:36.247Z,1002
2016-09-25T03:32:56.886Z,1002
2016-09-25T03:33:17.490Z,1002
2016-09-25T03:33:38.082Z,1002
2016-09-25T03:33:58.660Z,1002
2016-09-25T03:34:19.259Z,1002
2016-09-25T03:34:39.846Z,1002
2016-09-25T03:35:00.448Z,1002
2016-09-25T03:35:21.033Z,1002
2016-09-25T03:35:41.645Z,1002
2016-09-25T03:36:02.249Z,1002
2016-09-25T03:36:22.853Z,1002
2016-09-25T03:36:43.448Z,1002
2016-09-25T03:37:04.053Z,1002
2016-09-25T03:37:24.643Z,1002
2016-09-25T03:37:45.257Z,1002
2016-09-25T03:38:05.847Z,1002
2016-09-25T03:38:26.439Z,1002
2016-09-25T03:38:47.042Z,1002
2016-09-25T03:39:07.641Z,1002
2016-09-25T03:39:28.253Z,1002
2016-09-25T03:39:48.865Z,1002
2016-09-25T03:40:09.459Z,1002
2016-09-25T03:40:30.061Z,1002
2016-09-25T03:40:50.669Z,1002
2016-09-25T03:41:11.267Z,1002
2016-09-25T03:41:31.866Z,1001.9
2016-09-25T03:41:52.456Z,1001.9
2016-09-25T03:42:13.053Z,1001.9
2016-09-25T03:42:33.638Z,1002
2016-09-25T03:42:54.238Z,1001.9
2016-09-25T03:43:14.855Z,1001.9
2016-09-25T03:43:35.456Z,1001.9
2016-09-25T03:43:56.035Z,1001.9
2016-09-25T03:44:16.639Z,1001.9
2016-09-25T03:44:37.227Z,1001.9
2016-09-25T03:44:57.835Z,1001.9
2016-09-25T03:45:18.592Z,1001.9
2016-09-25T03:45:39.200Z,1001.9
2016-09-25T03:45:59.798Z,1001.9
2016-09-25T03:46:20.413Z,1001.9
2016-09-25T03:46:41.004Z,1001.9
2016-09-25T03:47:01.621Z,1001.9
2016-09-25T03:47:22.232Z,1001.9
2016-09-25T03:47:42.834Z,1001.9
2016-09-25T03:48:03.432Z,1001.9
2016-09-25T03:48:24.030Z,1001.9
2016-09-25T03:48:44.636Z,1001.9
2016-09-25T03:49:05.253Z,1001.9
2016-09-25T03:49:25.880Z,1001.9
2016-09-25T03:49:46.477Z,1001.9
2016-09-25T03:50:07.084Z,1001.9
2016-09-25T03:50:27.689Z,1001.9
2016-09-25T03:50:48.269Z,1001.9
2016-09-25T03:51:08.875Z,1001.9
2016-09-25T03:51:29.471Z,1001.9
2016-09-25T03:51:50.077Z,1001.9
2016-09-25T03:52:10.683Z,1001.9
2016-09-25T03:52:31.287Z,1001.9
2016-09-25T03:52:51.879Z,1001.9
2016-09-25T03:53:12.474Z,1001.9
2016-09-25T03:53:33.076Z,1001.9
2016-09-25T03:53:53.674Z,1001.9
2016-09-25T03:54:14.294Z,1001.9
2016-09-25T03:54:34.880Z,1001.9
2016-09-25T03:54:55.465Z,1001.8
2016-09-25T03:55:16.058Z,1001.9
2016-09-25T03:55:36.655Z,1001.9
2016-09-25T03:55:57.244Z,1001.9
2016-09-25T03:56:17.853Z,1001.9
2016-09-25T03:56:38.437Z,1001.9
2016-09-25T03:56:59.030Z,1001.9
2016-09-25T03:57:19.632Z,1001.9
2016-09-25T03:57:40.316Z,1001.9
2016-09-25T03:58:00.921Z,1001.8
2016-09-25T03:58:21.520Z,1001.9
2016-09-25T03:58:42.127Z,1001.9
2016-09-25T03:59:02.762Z,1001.9
2016-09-25T03:59:23.359Z,1001.9
2016-09-25T03:59:43.950Z,1001.9
2016-09-25T04:00:04.566Z,1001.9
2016-09-25T04:00:25.178Z,1001.9
2016-09-25T04:00:45.788Z,1001.9
2016-09-25T04:01:06.372Z,1001.8
2016-09-25T04:01:26.973Z,1001.8
2016-09-25T04:01:47.590Z,1001.8
2016-09-25T04:02:08.260Z,1001.9
2016-09-25T04:02:28.890Z,1001.9
2016-09-25T04:02:49.493Z,1001.8
2016-09-25T04:03:10.090Z,1001.9
2016-09-25T04:03:30.673Z,1001.8
2016-09-25T04:03:51.280Z,1001.8
2016-09-25T04:04:11.886Z,1001.9
2016-09-25T04:04:32.500Z,1001.8
2016-09-25T04:04:53.084Z,1001.8
2016-09-25T04:05:13.719Z,1001.8
2016-09-25T04:05:34.344Z,1001.8
2016-09-25T04:05:54.938Z,1001.8
2016-09-25T04:06:15.537Z,1001.8
2016-09-25T04:06:36.137Z,1001.8
2016-09-25T04:06:56.732Z,1001.8
2016-09-25T04:07:17.335Z,1001.8
2016-09-25T04:07:37.943Z,1001.8
2016-09-25T04:07:58.534Z,1001.8
2016-09-25T04:08:19.109Z,1001.8
2016-09-25T04:08:39.735Z,1001.8
2016-09-25T04:09:00.336Z,1001.8
2016-09-25T04:09:20.924Z,1001.8
2016-09-25T04:09:41.511Z,1001.8
2016-09-25T04:10:02.098Z,1001.8
2016-09-25T04:10:22.719Z,1001.8
2016-09-25T04:10:43.329Z,1001.8
2016-09-25T04:11:03.941Z,1001.8
2016-09-25T04:11:24.544Z,1001.8
2016-09-25T04:11:45.144Z,1001.8
2016-09-25T04:12:05.740Z,1001.8
2016-09-25T04:12:26.345Z,1001.8
2016-09-25T04:12:46.954Z,1001.9
2016-09-25T04:13:07.563Z,1001.8
2016-09-25T04:13:28.149Z,1001.8
2016-09-25T04:13:48.771Z,1001.8
2016-09-25T04:14:09.368Z,1001.8
2016-09-25T04:14:29.970Z,1001.8
2016-09-25T04:14:50.569Z,1001.8
2016-09-25T04:15:11.171Z,1001.8
2016-09-25T04:15:31.784Z,1001.8
2016-09-25T04:15:52.392Z,1001.8
2016-09-25T04:16:13.008Z,1001.8
2016-09-25T04:16:33.620Z,1001.8
2016-09-25T04:16:54.228Z,1001.8
2016-09-25T04:17:14.805Z,1001.8
2016-09-25T04:17:35.455Z,1001.9
2016-09-25T04:17:56.019Z,1001.8
2016-09-25T04:18:16.617Z,1001.9
2016-09-25T04:18:37.208Z,1001.8